AirNav   Phillips 66 Aviation Fuel
 
 1268 users online  

6WI0 Cub Acres Airport
Prairie Farm, Wisconsin, USA

GOING TO PRAIRIE FARM?


FAA INFORMATION EFFECTIVE 20 JULY 2017

Location

FAA Identifier: 6WI0
Lat/Long: 45-10-49.8630N / 091-59-15.6440W
45-10.831050N / 091-59.260733W
45.1805175 / -91.9876789
(estimated)
Elevation: 1000 ft. / 305 m (estimated)
Variation: 02E (1985)
From city: 3 miles S of PRAIRIE FARM, WI
Time zone: UTC -5 (UTC -6 during Standard Time)
Zip code: 54763

Airport Operations

Airport use: Private use. Permission required prior to landing
Activation date: 01/1977
Control tower: no
ARTCC: MINNEAPOLIS CENTER
FSS: GREEN BAY FLIGHT SERVICE STATION
Attendance: UNATNDD
Wind indicator: yes
Segmented circle: no

Airport Communications

WX AWOS-3P at Y23 (17 nm NE): 119.05 (715-924-1836)
WX AWOS-3 at RPD (17 nm NE): 120.525 (715-458-4481)
WX AWOS-3 at LUM (18 nm S): 118.025 (715-235-5342)
WX AWOS-3PT at UBE (20 nm N): 119.175 (715-822-3452)

Nearby radio navigation aids

VOR radial/distance  VOR name  Freq  Var
EAUr304/27.5EAU CLAIRE VORTAC112.9004E

Airport Services

Runway Information

Runway 18/36

Dimensions: 2000 x 110 ft. / 610 x 34 m
Surface: turf
RUNWAY 18  RUNWAY 36
Traffic pattern: rightleft
Obstructions: nonetrees, 700 ft. from runway

Airport Ownership and Management from official FAA records

Ownership: Privately-owned
Owner: JAMES B. HOOVER
2 RIVER RD
RIDGELAND, WI 54763
Manager: JAMES B. HOOVER
2 RIVER RD
RIDGELAND, WI 54763
Phone 715-455-1744

Airport Operational Statistics

Aircraft based on the field: 1
Single engine airplanes: 1
    

Instrument Procedures

There are no published instrument procedures at 6WI0.

Some nearby airports with instrument procedures:

3T3 - Boyceville Municipal Airport (8 nm S)
Y23 - Chetek Municipal-Southworth Airport (17 nm NE)
KRPD - Rice Lake Regional Airport - Carl's Field (17 nm NE)
KAHH - Amery Municipal Airport (17 nm W)
KLUM - Menomonie Municipal Airport-Score Field (18 nm S)
KUBE - Cumberland Municipal Airport (20 nm N)
 
Loc | Ops | Rwys | IFR | FBO | Links
Com | Nav | Svcs | Stats | Notes


 
Area around 6WI0 (Cub Acres Airport)
 
Road maps at: MapQuest Bing Google
 
Aerial photo
WARNING: Photo may not be current or correct
Aerial photo of 6WI0 (Cub Acres Airport)
Photo by Dr. Dan Johnson
Photo taken 03-Oct-2010
looking northwest.

Do you have a better or more recent aerial photo of Cub Acres Airport that you would like to share? If so, please send us your photo.

 
Sectional chart

 
Airport distance calculator
Flying to Cub Acres Airport? Find the distance to fly.

From to 6WI0

Sunrise and sunset
Times for 25-Jul-2017
 Local
(UTC-5)
 Zulu
(UTC)
Morning civil twilight05:1110:11
Sunrise05:4610:46
Sunset20:4301:43
Evening civil twilight21:1802:18

Current date and time
Zulu (UTC)  25-Jul-2017 22:41:56
Local (UTC-5)  25-Jul-2017 17:41:56
 
METAR
KY23 
17nm NE 
252215Z AUTO 18009G14KT BKN028 BKN033 OVC046 25/19 A3000 RMK AO2 T02500194 PWINO
KLUM 
18nm S 
252215Z AUTO 13011KT 10SM CLR 25/19 A2999 RMK AO2 T02490192
KUBE 
20nm N 
252215Z AUTO 16007KT 10SM BKN030 OVC038 22/18 A3000 RMK AO2
KRPD 
21nm NE 
252215Z AUTO 15008KT 7SM SCT027 BKN032 OVC044 24/18 A3001 RMK AO2 T02400180
KRNH 
23nm W 
252215Z AUTO 16008KT 10SM OVC038 26/19 A2997 RMK AO2 T02570194
KEAU 
29nm SE 
252156Z 14009KT 10SM CLR 24/19 A3000 RMK AO2 RAB06E20 SLP155 P0001 T02390194
KOEO 
30nm W 
252215Z AUTO 18006KT 10SM BKN034 OVC048 27/20 A2998 RMK AO2 T02650199
TAF
KRNH 
23nm W 
251928Z 2519/2618 17012G19KT P6SM SCT050 FM252200 19010KT P6SM SCT050 SCT150 FM260200 18006KT 6SM SHRA VCTS SCT040 OVC070CB TEMPO 2604/2608 2SM TSRA SCT020CB OVC040 FM260900 VRB03KT P6SM OVC040 FM261200 VRB03KT P6SM OVC020
NOTAMs
Click for the latest NOTAMs
NOTAMs are issued by the DoD/FAA and will open in a separate window not controlled by AirNav.

 

 
 

Would you like to see your business listed on this page?

 If your business provides an interesting product or service to pilots, flight crews, aircraft, or users of the Cub Acres Airport, you should consider listing it here.  To start the listing process, click on the button below
 
Add a business
 

Other Pages about Cub Acres Airport

Update a link
 
Copyright © AirNav, LLC. All rights reserved. Privacy Policy  Contact